Middle Georgia Regional Airport
KMCN : now visible

Airfield :











YOU CAN JOIN US ON...

 
LOGIN :

Register | Disclaimer

   EN    FR    IT 

 









Legend :    VFR   Marginal VFR   IFR   Intensive IFR   Very Intensive IFR
Visi :
Ceiling :
>= 8 km
>= 3000ft
5 to 8 km
1000 to 3000 ft
1500m to 5 km
500 to 1000 ft
800 to 1500m
200 to 500 ft
< 800m
< 200 ft
Symbols :   Thunderstorms  Fog  Heavy snow  Heavy precipitations  Wind > 20 kt






- Airport Elevation : 354 ft
- IATA code : MCN


KMCN - Middle Georgia Regional

CURRENT METAR :
  • 130553Z AUTO 00000KT 4SM BR CLR 23/22 A3001 RMK AO2 SLP155 T02330222 10256 20233 50000

EXPIRED METARs :
  • 130453Z AUTO 00000KT 8SM CLR 24/22 A3002 RMK AO2 SLP158 T02390222 403560228
  • 130353Z AUTO 34003KT 10SM CLR 24/23 A3002 RMK AO2 SLP159 T02440228

TAF KMCN
Valid from the 13 at 06:00 until the 14 at 06:00 UTC


130520Z 1306/1406 00000KT P6SM SCT060 SCT120
FM130800 00000KT 3SM BR FEW012 SCT060 SCT120
FM131400 00000KT P6SM FEW030
FM131800 22006KT P6SM VCSH BKN040
TEMPO 1319/1323 VRB15G25KT 4SM TSRA SCT015 BKN030CB
FM140200 VRB03KT P6SM BKN250
KZTL FIR / North America



MET'MAP, your aeronautical weather chart ! - Copyright ORBIFLY December 2007 - Disclaimer

ORBIFLY MET'MAP TEAM :

Programming & Development : Alexandra Zaïnal
Concept & original design : Baudouin d'Aumeries
Assistance for programming : Marc-Olivier Méhu
Technical & hardware support : Manuel Goepfert

Contact : metmap@orbifly.com




SOURCES & CREDITS :

   NOAA       Earth
Advisory